Time;durP1;ratioP1;P1;durP2;ratioP2;P2;SDS_P1;SDS_P2;PMS_P1;PMS_P2;Temp;Humidity;BMP_temperature;BMP_pressure;BME280_temperature;BME280_humidity;BME280_pressure;Samples;Min_cycle;Max_cycle;Signal;HPM_P1;HPM_P2
2022/05/04 00:00:06;;;;;;;16.20;10.52;;;;;;;;;;5010048;28;20029;-89
2022/05/04 00:02:45;;;;;;;15.02;10.02;;;;;;;;;;5017164;28;20504;-89
2022/05/04 00:05:11;;;;;;;14.25;8.52;;;;;;;;;;5014030;28;20037;-89
2022/05/04 00:07:41;;;;;;;13.85;9.20;;;;;;;;;;5029566;28;20040;-88
2022/05/04 00:10:08;;;;;;;11.38;7.75;;;;;;;;;;5032113;28;20427;-89
2022/05/04 00:12:38;;;;;;;8.52;7.15;;;;;;;;;;5009361;28;20389;-89
2022/05/04 00:15:05;;;;;;;12.02;7.15;;;;;;;;;;5015752;28;20045;-89
2022/05/04 00:17:32;;;;;;;9.80;7.07;;;;;;;;;;5012577;28;20041;-89
2022/05/04 00:19:59;;;;;;;9.32;7.32;;;;;;;;;;5018256;28;20079;-89
2022/05/04 00:22:35;;;;;;;14.07;6.43;;;;;;;;;;5016720;28;20049;-89
2022/05/04 00:25:04;;;;;;;10.95;6.78;;;;;;;;;;5013121;28;20048;-88
2022/05/04 00:27:31;;;;;;;8.80;6.03;;;;;;;;;;5002933;28;20084;-89
2022/05/04 00:30:06;;;;;;;9.25;6.15;;;;;;;;;;5016797;28;20486;-88
2022/05/04 00:32:32;;;;;;;8.50;5.47;;;;;;;;;;5022759;28;20037;-89
2022/05/04 00:35:04;;;;;;;10.48;5.85;;;;;;;;;;5009189;28;20044;-90
2022/05/04 00:37:31;;;;;;;7.40;5.22;;;;;;;;;;5010085;28;20402;-90
2022/05/04 00:40:00;;;;;;;10.35;5.05;;;;;;;;;;5015328;28;20121;-90
2022/05/04 00:42:26;;;;;;;9.20;5.40;;;;;;;;;;5001333;28;20037;-90
2022/05/04 00:45:11;;;;;;;6.57;4.88;;;;;;;;;;5017521;28;20125;-90
2022/05/04 00:47:37;;;;;;;6.10;4.00;;;;;;;;;;4993784;28;20068;-89
2022/05/04 00:50:09;;;;;;;5.55;3.53;;;;;;;;;;5014732;28;20044;-89
2022/05/04 00:52:36;;;;;;;7.75;3.92;;;;;;;;;;5009174;28;20034;-89
2022/05/04 00:55:09;;;;;;;8.25;3.58;;;;;;;;;;5016807;28;20026;-89
2022/05/04 01:00:28;;;;;;;5.05;3.03;;;;;;;;;;5016537;28;20080;-89
2022/05/04 01:02:54;;;;;;;4.85;3.28;;;;;;;;;;5015481;28;20046;-89
2022/05/04 01:05:34;;;;;;;6.22;3.65;;;;;;;;;;5002270;28;20065;-90
2022/05/04 01:08:00;;;;;;;6.78;3.85;;;;;;;;;;5013602;28;20026;-89
2022/05/04 01:10:32;;;;;;;5.32;3.13;;;;;;;;;;5014072;28;20497;-89
2022/05/04 01:12:59;;;;;;;5.85;3.13;;;;;;;;;;5005966;28;20053;-89
2022/05/04 01:15:25;;;;;;;6.47;3.58;;;;;;;;;;5017241;28;20109;-89
2022/05/04 01:17:52;;;;;;;6.32;3.13;;;;;;;;;;5016789;28;20026;-89
2022/05/04 01:20:37;;;;;;;6.20;3.13;;;;;;;;;;4996716;28;20137;-90
2022/05/04 01:23:04;;;;;;;5.50;2.47;;;;;;;;;;5010711;28;20374;-89
2022/05/04 01:25:34;;;;;;;6.07;2.70;;;;;;;;;;5018089;28;20096;-89
2022/05/04 01:28:02;;;;;;;6.20;2.25;;;;;;;;;;5017487;28;20400;-88
2022/05/04 01:30:30;;;;;;;5.72;2.25;;;;;;;;;;5016698;28;21246;-89
2022/05/04 01:33:15;;;;;;;3.67;1.48;;;;;;;;;;5034564;28;20030;-90
2022/05/04 01:35:41;;;;;;;5.35;2.05;;;;;;;;;;5015456;28;20087;-89
2022/05/04 01:38:12;;;;;;;4.45;1.42;;;;;;;;;;5017742;28;20030;-89
2022/05/04 01:40:38;;;;;;;6.13;1.75;;;;;;;;;;5016636;28;20044;-90
2022/05/04 01:43:04;;;;;;;6.32;1.77;;;;;;;;;;5012792;28;20040;-90
2022/05/04 01:45:31;;;;;;;3.90;1.50;;;;;;;;;;5017962;28;20033;-89
2022/05/04 01:48:04;;;;;;;3.92;1.15;;;;;;;;;;5017122;28;20033;-91
2022/05/04 01:50:31;;;;;;;3.67;1.50;;;;;;;;;;5027565;28;20068;-92
2022/05/04 01:53:06;;;;;;;5.38;1.65;;;;;;;;;;5026048;28;20058;-91
2022/05/04 01:55:33;;;;;;;2.92;1.30;;;;;;;;;;5014605;28;20034;-91
2022/05/04 01:58:00;;;;;;;4.18;2.03;;;;;;;;;;5031623;28;20053;-92
2022/05/04 02:00:26;;;;;;;5.70;2.63;;;;;;;;;;5027794;28;20065;-92
2022/05/04 02:02:58;;;;;;;7.13;2.40;;;;;;;;;;5030457;28;20413;-92
2022/05/04 02:05:25;;;;;;;6.50;2.50;;;;;;;;;;5033452;28;20057;-92
2022/05/04 02:08:03;;;;;;;9.30;2.80;;;;;;;;;;5032022;28;20030;-90
2022/05/04 02:10:30;;;;;;;8.02;2.25;;;;;;;;;;5028610;28;20040;-90
2022/05/04 02:12:57;;;;;;;6.28;2.05;;;;;;;;;;5006805;28;20037;-93
2022/05/04 02:15:24;;;;;;;5.72;3.00;;;;;;;;;;5021973;28;20033;-92
2022/05/04 02:17:54;;;;;;;3.95;1.83;;;;;;;;;;5009035;28;20042;-92
2022/05/04 02:20:20;;;;;;;8.43;2.13;;;;;;;;;;5015425;28;20382;-93
2022/05/04 02:22:47;;;;;;;4.43;2.40;;;;;;;;;;5028498;28;20056;-91
2022/05/04 02:25:14;;;;;;;6.75;2.33;;;;;;;;;;5014702;28;20664;-91
2022/05/04 02:27:40;;;;;;;8.85;2.72;;;;;;;;;;5013748;28;20033;-90
2022/05/04 02:30:16;;;;;;;6.75;2.10;;;;;;;;;;5013894;28;20060;-93
2022/05/04 02:32:42;;;;;;;6.60;3.13;;;;;;;;;;5019383;28;20038;-92
2022/05/04 02:37:54;;;;;;;5.35;2.80;;;;;;;;;;5032135;28;20106;-90
2022/05/04 02:40:22;;;;;;;5.72;3.33;;;;;;;;;;5016812;28;20033;-90
2022/05/04 02:42:48;;;;;;;7.55;4.32;;;;;;;;;;5020702;28;20180;-90
2022/05/04 02:45:21;;;;;;;6.55;2.25;;;;;;;;;;5020624;28;20086;-91
2022/05/04 02:47:48;;;;;;;5.90;2.47;;;;;;;;;;5028466;28;20042;-89
2022/05/04 02:50:14;;;;;;;6.13;2.13;;;;;;;;;;5014348;28;20071;-89
2022/05/04 02:52:41;;;;;;;5.55;2.08;;;;;;;;;;5015251;28;20515;-88
2022/05/04 02:55:20;;;;;;;9.65;2.78;;;;;;;;;;5014693;28;20219;-91
2022/05/04 02:57:46;;;;;;;5.90;1.88;;;;;;;;;;5014263;28;20044;-89
2022/05/04 03:00:20;;;;;;;5.47;2.10;;;;;;;;;;5004513;28;20158;-90
2022/05/04 03:02:46;;;;;;;4.65;1.63;;;;;;;;;;5024631;28;20473;-88
2022/05/04 03:05:37;;;;;;;4.10;2.05;;;;;;;;;;5004124;28;20417;-90
2022/05/04 03:08:04;;;;;;;7.78;2.05;;;;;;;;;;5032110;28;20040;-91
2022/05/04 03:11:54;;;;;;;7.30;2.13;;;;;;;;;;5012989;28;20034;-91
2022/05/04 03:13:20;;;;;;;7.85;2.03;;;;;;;;;;5027254;28;20034;-92
2022/05/04 03:15:47;;;;;;;6.05;2.00;;;;;;;;;;5018047;28;20118;-91
2022/05/04 03:18:16;;;;;;;6.65;2.35;;;;;;;;;;5010314;28;20041;-90
2022/05/04 03:20:42;;;;;;;5.65;1.83;;;;;;;;;;5013450;28;20485;-89
2022/05/04 03:23:08;;;;;;;7.97;2.38;;;;;;;;;;5012090;28;20053;-91
2022/05/04 03:25:37;;;;;;;5.93;1.80;;;;;;;;;;5012966;28;20053;-89
2022/05/04 03:28:03;;;;;;;6.30;1.77;;;;;;;;;;5024238;28;20034;-91
2022/05/04 03:30:31;;;;;;;8.02;2.40;;;;;;;;;;5028361;28;20095;-90
2022/05/04 03:32:57;;;;;;;5.60;1.58;;;;;;;;;;5014098;28;20099;-91
2022/05/04 03:35:25;;;;;;;4.25;1.77;;;;;;;;;;5015389;28;20433;-91
2022/05/04 03:37:51;;;;;;;5.97;1.73;;;;;;;;;;5027957;28;20132;-88
2022/05/04 03:40:25;;;;;;;6.43;2.35;;;;;;;;;;5014018;28;20040;-90
2022/05/04 03:42:52;;;;;;;7.75;2.15;;;;;;;;;;5012755;28;20916;-86
2022/05/04 03:45:28;;;;;;;4.82;2.05;;;;;;;;;;5013911;28;20036;-89
2022/05/04 03:47:54;;;;;;;7.35;2.55;;;;;;;;;;5013939;28;20131;-87
2022/05/04 03:50:21;;;;;;;8.30;1.77;;;;;;;;;;5025268;28;20034;-88
2022/05/04 03:52:47;;;;;;;8.45;2.20;;;;;;;;;;5012943;28;20029;-89
2022/05/04 03:55:19;;;;;;;10.48;1.55;;;;;;;;;;5013340;28;20034;-88
2022/05/04 03:57:45;;;;;;;5.10;1.88;;;;;;;;;;5012814;28;20771;-89
2022/05/04 04:00:12;;;;;;;6.72;1.80;;;;;;;;;;5025643;28;20041;-88
2022/05/04 04:02:38;;;;;;;11.10;1.55;;;;;;;;;;5020162;28;20053;-88
2022/05/04 04:05:05;;;;;;;5.95;1.70;;;;;;;;;;5026904;28;20042;-89
2022/05/04 04:07:31;;;;;;;6.03;2.03;;;;;;;;;;5007726;28;20087;-89
2022/05/04 04:10:00;;;;;;;3.63;1.27;;;;;;;;;;5012034;28;20496;-89
2022/05/04 04:12:26;;;;;;;9.13;1.35;;;;;;;;;;5009328;28;20116;-90
2022/05/04 04:14:53;;;;;;;4.57;1.38;;;;;;;;;;5023181;28;20038;-90
2022/05/04 04:17:22;;;;;;;7.60;1.77;;;;;;;;;;5013663;28;20080;-90
2022/05/04 04:21:50;;;;;;;6.65;1.60;;;;;;;;;;5014342;28;20642;-89
2022/05/04 04:22:34;;;;;;;2.97;1.05;;;;;;;;;;5027886;28;20064;-88
2022/05/04 04:25:02;;;;;;;4.15;0.98;;;;;;;;;;5006995;28;20042;-88
2022/05/04 04:27:32;;;;;;;3.15;1.00;;;;;;;;;;5012427;28;20549;-89
2022/05/04 04:30:03;;;;;;;2.95;0.82;;;;;;;;;;5014282;28;20030;-91
2022/05/04 04:32:29;;;;;;;5.40;0.90;;;;;;;;;;5013664;28;20041;-86
2022/05/04 04:34:56;;;;;;;3.13;0.82;;;;;;;;;;5016060;28;20510;-88
2022/05/04 04:37:23;;;;;;;3.40;0.88;;;;;;;;;;5011983;28;20037;-90
2022/05/04 04:39:51;;;;;;;4.68;0.47;;;;;;;;;;5006758;28;20041;-90
2022/05/04 04:42:34;;;;;;;1.98;0.32;;;;;;;;;;5005320;28;20063;-90
2022/05/04 04:45:00;;;;;;;5.07;0.38;;;;;;;;;;5009928;28;20038;-89
2022/05/04 04:47:31;;;;;;;3.13;0.43;;;;;;;;;;5003624;28;20041;-88
2022/05/04 04:49:58;;;;;;;4.78;0.38;;;;;;;;;;5009492;28;20040;-89
2022/05/04 04:52:26;;;;;;;4.10;0.40;;;;;;;;;;5025368;28;20033;-88
2022/05/04 04:54:52;;;;;;;6.25;1.05;;;;;;;;;;5011945;28;20064;-89
2022/05/04 04:57:19;;;;;;;5.05;1.25;;;;;;;;;;5014270;28;20040;-88
2022/05/04 04:59:48;;;;;;;6.72;1.27;;;;;;;;;;5014473;28;20374;-89
2022/05/04 05:02:22;;;;;;;5.15;1.17;;;;;;;;;;5012253;28;20060;-90
2022/05/04 05:05:12;;;;;;;7.30;1.20;;;;;;;;;;5010143;28;20042;-88
2022/05/04 05:07:41;;;;;;;5.38;0.80;;;;;;;;;;4952452;28;20679;-87
2022/05/04 05:10:08;;;;;;;8.32;1.38;;;;;;;;;;5019267;28;20030;-88
2022/05/04 05:12:35;;;;;;;10.60;1.20;;;;;;;;;;5015440;28;20471;-89
2022/05/04 05:17:52;;;;;;;9.30;1.00;;;;;;;;;;5027754;28;20619;-87
2022/05/04 05:20:18;;;;;;;7.22;1.27;;;;;;;;;;5009788;28;20029;-88
2022/05/04 05:22:46;;;;;;;6.60;1.38;;;;;;;;;;5017450;28;20055;-86
2022/05/04 05:25:15;;;;;;;7.97;1.02;;;;;;;;;;5013363;28;20400;-89
2022/05/04 05:27:48;;;;;;;7.18;1.23;;;;;;;;;;5013008;28;20033;-92
2022/05/04 05:30:14;;;;;;;7.90;0.98;;;;;;;;;;5014151;28;21686;-91
2022/05/04 05:32:41;;;;;;;4.45;1.00;;;;;;;;;;5024437;28;20033;-92
2022/05/04 05:35:07;;;;;;;5.82;1.55;;;;;;;;;;5021626;28;20041;-92
2022/05/04 05:37:39;;;;;;;5.55;1.75;;;;;;;;;;5032868;28;20120;-90
2022/05/04 05:40:05;;;;;;;7.88;1.50;;;;;;;;;;5023508;28;20550;-91
2022/05/04 05:42:54;;;;;;;9.07;2.13;;;;;;;;;;5013445;28;20125;-91
2022/05/04 05:45:20;;;;;;;5.55;2.20;;;;;;;;;;5033596;28;20120;-91
2022/05/04 05:48:13;;;;;;;6.68;2.17;;;;;;;;;;5008439;28;20045;-91
2022/05/04 05:50:39;;;;;;;5.60;1.73;;;;;;;;;;4979492;28;20096;-92
2022/05/04 05:53:05;;;;;;;7.80;1.50;;;;;;;;;;5009883;28;20116;-91
2022/05/04 05:55:32;;;;;;;9.30;2.33;;;;;;;;;;5020536;28;20029;-90
2022/05/04 05:58:01;;;;;;;9.23;2.03;;;;;;;;;;5034565;28;20037;-90
2022/05/04 06:00:40;;;;;;;4.25;1.70;;;;;;;;;;5010694;28;20038;-91
2022/05/04 06:03:07;;;;;;;5.22;1.77;;;;;;;;;;5014126;28;20439;-90
2022/05/04 06:05:39;;;;;;;5.30;1.67;;;;;;;;;;5012529;28;20033;-91
2022/05/04 06:08:06;;;;;;;6.13;1.35;;;;;;;;;;5014683;28;20029;-90
2022/05/04 06:10:45;;;;;;;2.80;1.25;;;;;;;;;;5009881;28;20060;-90
2022/05/04 06:13:11;;;;;;;5.18;1.35;;;;;;;;;;4997711;28;20058;-91
2022/05/04 06:15:38;;;;;;;5.22;1.33;;;;;;;;;;5017401;28;20065;-91
2022/05/04 06:18:05;;;;;;;6.03;1.30;;;;;;;;;;5029487;28;20380;-90
2022/05/04 06:20:44;;;;;;;4.72;1.17;;;;;;;;;;5017739;28;20025;-90
2022/05/04 06:23:11;;;;;;;4.85;1.15;;;;;;;;;;5012235;28;20041;-90
2022/05/04 06:25:37;;;;;;;9.07;1.67;;;;;;;;;;5026690;28;20128;-91
2022/05/04 06:28:10;;;;;;;7.65;1.52;;;;;;;;;;5008258;28;20049;-90
2022/05/04 06:36:10;;;;;;;7.63;1.27;;;;;;;;;;5033098;28;20040;-91
2022/05/04 06:38:37;;;;;;;3.55;0.88;;;;;;;;;;5016092;28;20404;-90
2022/05/04 06:41:05;;;;;;;4.07;0.98;;;;;;;;;;5015810;28;20068;-91
2022/05/04 06:43:33;;;;;;;5.82;1.67;;;;;;;;;;5017722;28;20469;-90
2022/05/04 06:46:01;;;;;;;6.03;1.13;;;;;;;;;;5014100;28;20041;-91
2022/05/04 06:48:52;;;;;;;5.05;0.90;;;;;;;;;;5015347;28;20432;-91
2022/05/04 06:51:26;;;;;;;7.38;1.25;;;;;;;;;;4996604;28;20449;-91
2022/05/04 06:53:52;;;;;;;5.43;1.02;;;;;;;;;;5018458;28;20097;-91
2022/05/04 06:56:19;;;;;;;5.45;1.13;;;;;;;;;;5015746;28;20052;-90
2022/05/04 06:58:46;;;;;;;3.90;0.95;;;;;;;;;;5013772;28;20041;-91
2022/05/04 07:01:14;;;;;;;7.18;1.30;;;;;;;;;;5011761;28;20030;-90
2022/05/04 07:03:40;;;;;;;7.10;1.23;;;;;;;;;;5013478;28;20030;-90
2022/05/04 07:06:09;;;;;;;5.60;1.17;;;;;;;;;;5027544;28;20366;-90
2022/05/04 07:08:35;;;;;;;10.38;1.50;;;;;;;;;;5011369;28;20397;-89
2022/05/04 07:11:09;;;;;;;8.30;1.55;;;;;;;;;;5014221;28;20030;-90
2022/05/04 07:13:36;;;;;;;6.05;1.40;;;;;;;;;;5015299;28;20508;-91
2022/05/04 07:16:11;;;;;;;5.22;1.10;;;;;;;;;;5012594;28;20030;-90
2022/05/04 07:18:37;;;;;;;5.10;1.98;;;;;;;;;;5010374;28;20048;-91
2022/05/04 07:21:05;;;;;;;5.60;1.02;;;;;;;;;;5009907;28;20033;-90
2022/05/04 07:23:32;;;;;;;5.60;1.80;;;;;;;;;;5009213;28;20040;-91
2022/05/04 07:25:58;;;;;;;6.25;1.58;;;;;;;;;;5013804;28;20042;-90
2022/05/04 07:28:38;;;;;;;9.85;1.77;;;;;;;;;;5023919;28;20083;-90
2022/05/04 07:31:04;;;;;;;6.80;1.77;;;;;;;;;;5030905;28;20060;-90
2022/05/04 07:33:33;;;;;;;5.10;1.75;;;;;;;;;;5013357;28;20030;-91
2022/05/04 07:36:02;;;;;;;7.78;2.05;;;;;;;;;;5027637;28;20029;-89
2022/05/04 07:38:29;;;;;;;7.15;1.77;;;;;;;;;;5025618;28;20029;-89
2022/05/04 07:43:42;;;;;;;9.65;1.58;;;;;;;;;;5029872;28;20082;-90
2022/05/04 07:46:09;;;;;;;7.57;1.83;;;;;;;;;;5027243;28;20026;-89
2022/05/04 07:48:35;;;;;;;4.90;1.63;;;;;;;;;;5029303;28;20064;-90
2022/05/04 07:51:04;;;;;;;6.18;2.10;;;;;;;;;;5026827;28;20484;-88
2022/05/04 07:53:30;;;;;;;7.72;2.15;;;;;;;;;;5010188;28;20676;-89
2022/05/04 07:56:00;;;;;;;5.10;1.80;;;;;;;;;;5027003;28;20030;-91
2022/05/04 07:58:26;;;;;;;5.10;1.85;;;;;;;;;;5011229;28;20477;-88
2022/05/04 08:06:30;;;;;;;5.35;1.70;;;;;;;;;;5027110;28;20041;-88
2022/05/04 08:08:56;;;;;;;7.68;2.05;;;;;;;;;;5027586;28;20176;-90
2022/05/04 08:11:23;;;;;;;6.68;2.20;;;;;;;;;;5009820;28;20080;-90
2022/05/04 08:13:49;;;;;;;7.00;1.42;;;;;;;;;;5014346;28;20149;-90
2022/05/04 08:16:21;;;;;;;8.00;2.10;;;;;;;;;;5010843;28;20088;-89
2022/05/04 08:18:48;;;;;;;8.30;1.85;;;;;;;;;;5011720;28;20125;-89
2022/05/04 08:21:21;;;;;;;5.55;1.83;;;;;;;;;;5014795;28;20044;-89
2022/05/04 08:23:47;;;;;;;5.78;2.00;;;;;;;;;;5013860;28;20060;-90
2022/05/04 08:26:24;;;;;;;6.65;2.00;;;;;;;;;;5014330;28;20048;-89
2022/05/04 08:28:51;;;;;;;8.38;2.53;;;;;;;;;;5010847;28;20038;-89
2022/05/04 08:34:26;;;;;;;8.20;2.53;;;;;;;;;;5033259;28;20887;-90
2022/05/04 08:36:55;;;;;;;12.48;2.85;;;;;;;;;;5008887;28;20091;-90
2022/05/04 08:39:21;;;;;;;13.00;2.90;;;;;;;;;;5013830;28;20044;-91
2022/05/04 08:41:47;;;;;;;7.30;2.75;;;;;;;;;;5014853;28;20042;-90
2022/05/04 08:44:14;;;;;;;7.60;3.20;;;;;;;;;;5009432;28;20041;-90
2022/05/04 08:46:45;;;;;;;12.20;3.70;;;;;;;;;;5025282;28;20029;-90
2022/05/04 08:49:12;;;;;;;9.00;2.95;;;;;;;;;;5014757;28;20035;-90
2022/05/04 08:51:48;;;;;;;11.80;3.63;;;;;;;;;;5018611;28;20084;-90
2022/05/04 08:54:15;;;;;;;13.90;4.03;;;;;;;;;;5034539;28;20124;-89
2022/05/04 08:56:43;;;;;;;13.27;4.75;;;;;;;;;;5017969;28;20116;-90
2022/05/04 08:59:09;;;;;;;14.95;5.00;;;;;;;;;;5030876;28;20048;-89
2022/05/04 09:01:39;;;;;;;11.38;4.05;;;;;;;;;;5014384;28;20492;-90
2022/05/04 09:04:07;;;;;;;12.63;4.15;;;;;;;;;;5017991;28;20037;-90
2022/05/04 09:06:37;;;;;;;9.65;4.32;;;;;;;;;;5035263;28;20072;-90
2022/05/04 09:09:13;;;;;;;11.60;4.70;;;;;;;;;;5015961;28;20037;-89
2022/05/04 09:11:41;;;;;;;17.73;5.43;;;;;;;;;;5029650;28;20037;-90
2022/05/04 09:14:15;;;;;;;15.77;5.15;;;;;;;;;;5026843;28;20551;-89
2022/05/04 09:16:42;;;;;;;14.57;5.03;;;;;;;;;;5013878;28;20029;-89
2022/05/04 09:19:09;;;;;;;13.88;4.70;;;;;;;;;;5021141;28;20045;-90
2022/05/04 09:21:36;;;;;;;16.55;5.38;;;;;;;;;;4999494;28;20096;-90
2022/05/04 09:24:05;;;;;;;13.07;5.28;;;;;;;;;;5011244;28;20133;-90
2022/05/04 09:26:32;;;;;;;14.70;4.85;;;;;;;;;;4996202;28;20075;-89
2022/05/04 09:29:04;;;;;;;11.82;4.72;;;;;;;;;;5008579;28;20104;-90
2022/05/04 09:31:31;;;;;;;22.38;5.70;;;;;;;;;;4995768;28;20576;-88
2022/05/04 09:34:04;;;;;;;11.43;4.75;;;;;;;;;;5011241;28;20046;-91
2022/05/04 09:36:32;;;;;;;20.90;6.45;;;;;;;;;;4996757;28;20033;-89
2022/05/04 09:44:55;;;;;;;13.98;6.07;;;;;;;;;;5008450;28;20032;-88
2022/05/04 09:47:26;;;;;;;14.38;6.07;;;;;;;;;;4996068;28;20041;-88
2022/05/04 09:50:03;;;;;;;15.88;7.03;;;;;;;;;;4989340;28;20572;-88
2022/05/04 09:52:40;;;;;;;15.27;6.47;;;;;;;;;;5011656;28;20044;-89
2022/05/04 09:55:17;;;;;;;13.00;6.32;;;;;;;;;;4992252;28;20057;-90
2022/05/04 09:57:44;;;;;;;17.60;7.25;;;;;;;;;;5012522;28;20126;-91
2022/05/04 10:00:15;;;;;;;17.92;7.05;;;;;;;;;;5007808;28;20037;-89
2022/05/04 10:02:44;;;;;;;14.88;6.65;;;;;;;;;;4995845;28;20089;-89
2022/05/04 10:05:11;;;;;;;17.67;6.70;;;;;;;;;;4995265;28;20117;-89
2022/05/04 10:07:37;;;;;;;19.75;8.30;;;;;;;;;;5010944;28;20034;-88
2022/05/04 10:10:09;;;;;;;21.52;7.97;;;;;;;;;;5010034;28;20040;-90
2022/05/04 10:12:38;;;;;;;18.60;7.88;;;;;;;;;;4991302;28;20080;-89
2022/05/04 10:15:09;;;;;;;20.35;7.68;;;;;;;;;;4999909;28;20045;-91
2022/05/04 10:17:37;;;;;;;19.20;7.93;;;;;;;;;;4996125;28;20042;-88
2022/05/04 10:20:09;;;;;;;19.40;8.02;;;;;;;;;;5005221;28;20096;-89
2022/05/04 10:22:39;;;;;;;17.85;7.15;;;;;;;;;;5010119;28;20042;-89
2022/05/04 10:25:06;;;;;;;18.55;7.15;;;;;;;;;;5016692;28;20103;-90
2022/05/04 10:27:32;;;;;;;17.08;7.35;;;;;;;;;;5030184;28;20032;-90
2022/05/04 10:32:53;;;;;;;18.77;9.57;;;;;;;;;;5032549;28;20052;-90
2022/05/04 10:35:28;;;;;;;18.92;10.70;;;;;;;;;;5031089;28;20116;-93
2022/05/04 10:37:57;;;;;;;18.70;9.50;;;;;;;;;;5010810;28;20040;-89
2022/05/04 10:43:36;;;;;;;20.60;10.70;;;;;;;;;;5024598;28;20644;-92
2022/05/04 10:46:34;;;;;;;22.95;10.45;;;;;;;;;;5015371;28;20044;-89
2022/05/04 10:49:05;;;;;;;20.65;10.43;;;;;;;;;;5006213;28;20789;-92
2022/05/04 10:51:34;;;;;;;19.77;11.07;;;;;;;;;;5011048;28;20025;-92
2022/05/04 10:54:04;;;;;;;21.90;12.10;;;;;;;;;;5012724;28;20083;-92
2022/05/04 10:56:35;;;;;;;22.67;12.13;;;;;;;;;;5016370;28;20044;-91
2022/05/04 10:59:01;;;;;;;25.02;15.10;;;;;;;;;;5028117;28;20531;-90
2022/05/04 11:01:46;;;;;;;23.10;15.50;;;;;;;;;;5032758;28;20575;-92
2022/05/04 11:04:15;;;;;;;27.98;16.15;;;;;;;;;;5013432;28;20045;-93
2022/05/04 11:06:51;;;;;;;32.10;17.15;;;;;;;;;;5016072;28;20025;-94
2022/05/04 11:09:29;;;;;;;28.48;15.35;;;;;;;;;;5016414;28;20129;-92
2022/05/04 11:11:56;;;;;;;26.63;14.65;;;;;;;;;;5032565;28;20041;-94
2022/05/04 11:14:25;;;;;;;26.33;14.38;;;;;;;;;;5016466;28;20380;-94
2022/05/04 11:16:52;;;;;;;26.92;14.05;;;;;;;;;;5017053;28;20039;-93
2022/05/04 11:19:22;;;;;;;25.50;13.15;;;;;;;;;;5010117;28;20057;-93
2022/05/04 11:24:52;;;;;;;26.10;13.55;;;;;;;;;;5026836;28;20040;-94
2022/05/04 11:27:19;;;;;;;26.08;15.25;;;;;;;;;;5016941;28;20041;-94
2022/05/04 11:29:45;;;;;;;19.83;13.40;;;;;;;;;;5014426;28;20117;-93
2022/05/04 11:32:19;;;;;;;26.67;14.05;;;;;;;;;;5011222;28;20128;-94
2022/05/04 11:34:45;;;;;;;28.45;12.90;;;;;;;;;;5000739;28;20044;-95
2022/05/04 11:37:14;;;;;;;23.15;12.88;;;;;;;;;;5019281;28;20477;-94
2022/05/04 11:39:42;;;;;;;25.98;13.45;;;;;;;;;;5016298;28;20029;-94
2022/05/04 11:42:08;;;;;;;24.38;12.25;;;;;;;;;;5013463;28;20397;-94
2022/05/04 11:44:41;;;;;;;30.10;12.85;;;;;;;;;;5014336;28;20582;-94
2022/05/04 11:47:08;;;;;;;26.17;12.75;;;;;;;;;;5019668;28;20473;-93
2022/05/04 11:52:32;;;;;;;28.35;12.98;;;;;;;;;;5026089;28;20444;-93
2022/05/04 11:55:12;;;;;;;21.08;11.35;;;;;;;;;;5011786;28;20037;-96
2022/05/04 11:57:45;;;;;;;28.67;12.77;;;;;;;;;;5022769;28;20042;-94
2022/05/04 12:00:31;;;;;;;27.05;14.18;;;;;;;;;;5031818;28;20042;-93
2022/05/04 12:02:58;;;;;;;25.60;12.68;;;;;;;;;;5032224;28;20038;-93
2022/05/04 12:05:25;;;;;;;23.67;13.38;;;;;;;;;;5029815;28;20034;-92
2022/05/04 12:07:55;;;;;;;22.98;13.05;;;;;;;;;;5014918;28;20041;-94
2022/05/04 12:10:26;;;;;;;22.67;13.90;;;;;;;;;;5029836;28;20040;-93
2022/05/04 12:12:53;;;;;;;30.63;17.63;;;;;;;;;;5015319;28;20042;-93
2022/05/04 12:15:24;;;;;;;32.40;21.63;;;;;;;;;;5015541;28;20091;-94
2022/05/04 12:17:50;;;;;;;40.33;23.00;;;;;;;;;;5029580;28;20460;-95
2022/05/04 12:20:21;;;;;;;46.47;26.48;;;;;;;;;;5015148;28;20044;-94
2022/05/04 12:25:51;;;;;;;38.05;20.35;;;;;;;;;;5027832;28;20068;-93
2022/05/04 12:28:18;;;;;;;37.83;22.08;;;;;;;;;;5020515;28;20025;-94
